createdAt,value
2022-11-03T00:00:50.097Z,11.80
2022-11-03T00:03:22.209Z,11.80
2022-11-03T00:06:15.608Z,11.80
2022-11-03T00:08:50.136Z,11.80
2022-11-03T00:11:18.773Z,11.80
2022-11-03T00:13:54.106Z,11.80
2022-11-03T00:16:22.616Z,11.80
2022-11-03T00:18:59.179Z,11.80
2022-11-03T00:21:27.642Z,11.80
2022-11-03T00:24:02.159Z,11.80
2022-11-03T00:26:31.789Z,11.80
2022-11-03T00:29:08.179Z,11.90
2022-11-03T00:31:38.641Z,11.80
2022-11-03T00:34:16.119Z,11.90
2022-11-03T00:36:45.543Z,11.90
2022-11-03T00:39:20.294Z,11.90
2022-11-03T00:41:48.607Z,11.90
2022-11-03T00:44:23.310Z,11.80
2022-11-03T00:46:51.518Z,11.80
2022-11-03T00:49:28.300Z,11.90
2022-11-03T00:51:58.784Z,11.90
2022-11-03T00:54:33.087Z,11.80
2022-11-03T00:57:21.307Z,11.80
2022-11-03T00:59:56.132Z,11.80
2022-11-03T01:02:24.518Z,11.80
2022-11-03T01:05:22.098Z,11.80
2022-11-03T01:07:52.234Z,11.80
2022-11-03T01:10:27.114Z,11.90
2022-11-03T01:12:55.645Z,11.80
2022-11-03T01:15:30.085Z,11.90
2022-11-03T01:17:58.315Z,11.90
2022-11-03T01:20:34.359Z,11.90
2022-11-03T01:23:02.497Z,11.90
2022-11-03T01:25:37.376Z,11.90
2022-11-03T01:28:05.885Z,11.90
2022-11-03T01:30:41.129Z,11.90
2022-11-03T01:33:09.475Z,11.90
2022-11-03T01:35:46.175Z,11.90
2022-11-03T01:38:14.541Z,11.90
2022-11-03T01:40:49.251Z,11.90
2022-11-03T01:43:17.935Z,12.00
2022-11-03T01:45:55.157Z,12.00
2022-11-03T01:48:24.207Z,12.00
2022-11-03T01:51:00.214Z,12.00
2022-11-03T01:53:29.882Z,12.10
2022-11-03T01:56:05.232Z,12.10
2022-11-03T01:58:44.858Z,12.10
2022-11-03T02:01:20.271Z,12.10
2022-11-03T02:03:53.314Z,12.10
2022-11-03T02:06:33.140Z,12.10
2022-11-03T02:09:12.138Z,12.20
2022-11-03T02:11:58.206Z,12.10
2022-11-03T02:14:33.205Z,12.10
2022-11-03T02:17:05.629Z,12.10
2022-11-03T02:19:43.198Z,12.10
2022-11-03T02:22:43.382Z,12.10
2022-11-03T02:25:26.228Z,12.10
2022-11-03T02:27:56.249Z,12.10
2022-11-03T02:30:31.377Z,12.10
2022-11-03T02:33:05.852Z,12.10
2022-11-03T02:35:48.368Z,12.00
2022-11-03T02:38:21.070Z,12.10
2022-11-03T02:41:00.340Z,12.10
2022-11-03T02:43:30.804Z,12.10
2022-11-03T02:46:06.294Z,12.10
2022-11-03T02:48:34.461Z,12.10
2022-11-03T02:51:11.282Z,12.10
2022-11-03T02:53:45.912Z,12.00
2022-11-03T02:56:25.428Z,12.00
2022-11-03T02:59:10.175Z,12.00
2022-11-03T03:01:54.322Z,12.00
2022-11-03T03:04:28.464Z,12.00
2022-11-03T03:07:08.262Z,12.00
2022-11-03T03:09:41.194Z,11.90
2022-11-03T03:12:18.240Z,12.00
2022-11-03T03:14:50.037Z,11.90
2022-11-03T03:17:32.252Z,11.90
2022-11-03T03:20:05.489Z,11.90
2022-11-03T03:22:44.456Z,11.90
2022-11-03T03:25:17.608Z,11.90
2022-11-03T03:27:57.273Z,11.90
2022-11-03T03:30:28.228Z,11.90
2022-11-03T03:33:04.685Z,11.90
2022-11-03T03:35:35.982Z,11.90
2022-11-03T03:38:16.283Z,11.90
2022-11-03T03:40:48.063Z,11.90
2022-11-03T03:43:23.352Z,11.90
2022-11-03T03:45:56.003Z,11.90
2022-11-03T03:48:31.639Z,11.90
2022-11-03T03:51:01.792Z,11.90
2022-11-03T03:53:38.250Z,11.90
2022-11-03T03:56:08.638Z,11.90
2022-11-03T03:58:56.473Z,11.90
2022-11-03T04:01:35.718Z,11.90
2022-11-03T04:04:10.331Z,11.90
2022-11-03T04:06:40.663Z,11.90
2022-11-03T04:09:16.310Z,11.90
2022-11-03T04:12:02.102Z,11.90
2022-11-03T04:14:54.663Z,11.90
2022-11-03T04:17:41.677Z,11.90
2022-11-03T04:20:38.520Z,11.90
2022-11-03T04:23:07.017Z,11.80
2022-11-03T04:25:43.356Z,11.80
2022-11-03T04:28:14.981Z,11.80
2022-11-03T04:30:53.377Z,11.80
2022-11-03T04:33:26.165Z,11.80
2022-11-03T04:36:03.323Z,11.80
2022-11-03T04:38:32.189Z,11.80
2022-11-03T04:41:08.342Z,11.80
2022-11-03T04:43:39.164Z,11.80
2022-11-03T04:46:17.397Z,11.80
2022-11-03T04:48:48.119Z,11.80
2022-11-03T04:51:25.433Z,11.80
2022-11-03T04:54:00.175Z,11.80
2022-11-03T04:56:35.411Z,11.80
2022-11-03T04:59:13.879Z,11.80
2022-11-03T05:01:51.657Z,11.90
2022-11-03T05:04:28.367Z,11.90
2022-11-03T05:06:56.647Z,11.90
2022-11-03T05:09:36.799Z,11.90
2022-11-03T05:12:10.704Z,11.90
2022-11-03T05:14:45.543Z,11.90
2022-11-03T05:17:24.207Z,11.90
2022-11-03T05:20:04.555Z,11.90
2022-11-03T05:22:36.623Z,12.00
2022-11-03T05:25:43.427Z,12.00
2022-11-03T05:28:20.679Z,12.00
2022-11-03T05:30:56.578Z,12.00
2022-11-03T05:33:29.829Z,12.00
2022-11-03T05:36:09.366Z,12.00
2022-11-03T05:38:37.564Z,12.00
2022-11-03T05:41:19.553Z,12.00
2022-11-03T05:43:53.935Z,12.00
2022-11-03T05:46:28.454Z,12.00
2022-11-03T05:48:57.038Z,12.00
2022-11-03T05:51:37.481Z,12.00
2022-11-03T05:54:20.586Z,12.00
2022-11-03T05:56:58.247Z,12.00
2022-11-03T05:59:34.679Z,12.10
2022-11-03T06:02:11.699Z,12.00
2022-11-03T06:04:40.784Z,12.10
2022-11-03T06:07:23.474Z,12.10
2022-11-03T06:09:54.186Z,12.10
2022-11-03T06:12:30.643Z,12.10
2022-11-03T06:14:58.968Z,12.10
2022-11-03T06:17:36.611Z,12.10
2022-11-03T06:20:17.245Z,12.10
2022-11-03T06:22:56.242Z,12.10
2022-11-03T06:25:31.417Z,12.10
2022-11-03T06:28:11.577Z,12.10
2022-11-03T06:33:25.444Z,12.10
2022-11-03T06:35:56.260Z,12.20
2022-11-03T06:38:37.487Z,12.20
2022-11-03T06:41:05.902Z,12.20
2022-11-03T06:43:46.530Z,12.20
2022-11-03T06:46:19.982Z,12.20
2022-11-03T06:48:55.445Z,12.20
2022-11-03T06:51:26.150Z,12.20
2022-11-03T06:54:05.430Z,12.20
2022-11-03T06:56:38.553Z,12.20
2022-11-03T06:59:23.648Z,12.20
2022-11-03T07:01:56.469Z,12.20
2022-11-03T07:04:35.634Z,12.20
2022-11-03T07:07:05.817Z,12.20
2022-11-03T07:09:42.475Z,12.20
2022-11-03T07:12:18.560Z,12.20
2022-11-03T07:14:53.514Z,12.30
2022-11-03T07:17:24.238Z,12.30
2022-11-03T07:19:59.549Z,12.30
2022-11-03T07:22:28.742Z,12.30
2022-11-03T07:25:08.587Z,12.30
2022-11-03T07:27:39.977Z,12.30
2022-11-03T07:30:26.538Z,12.30
2022-11-03T07:32:55.926Z,12.30
2022-11-03T07:36:13.087Z,12.30
2022-11-03T07:38:31.676Z,12.30
2022-11-03T07:41:08.562Z,12.40
2022-11-03T07:43:38.489Z,12.40
2022-11-03T07:46:14.524Z,12.40
2022-11-03T07:48:47.792Z,12.40
2022-11-03T07:51:28.660Z,12.40
2022-11-03T07:53:59.979Z,12.50
2022-11-03T07:56:40.507Z,12.50
2022-11-03T08:02:05.659Z,12.50
2022-11-03T08:04:36.664Z,12.60
2022-11-03T08:07:11.522Z,12.60
2022-11-03T08:09:42.976Z,12.60
2022-11-03T08:12:19.541Z,12.70
2022-11-03T08:14:47.984Z,12.70
2022-11-03T08:17:22.539Z,12.70
2022-11-03T08:19:50.863Z,12.70
2022-11-03T08:22:25.632Z,12.70
2022-11-03T08:24:54.004Z,12.80
2022-11-03T08:27:30.616Z,12.80
2022-11-03T08:29:58.754Z,12.80
2022-11-03T08:32:33.545Z,12.80
2022-11-03T08:35:02.032Z,12.90
2022-11-03T08:37:36.723Z,12.90
2022-11-03T08:40:05.672Z,12.90
2022-11-03T08:42:41.615Z,13.00
2022-11-03T08:45:11.303Z,13.00
2022-11-03T08:47:46.659Z,13.00
2022-11-03T08:50:14.966Z,13.10
2022-11-03T08:52:49.837Z,13.10
2022-11-03T08:55:20.776Z,13.10
2022-11-03T08:57:56.607Z,13.10
2022-11-03T09:00:31.795Z,13.10
2022-11-03T09:03:07.656Z,13.10
2022-11-03T09:05:36.547Z,13.10
2022-11-03T09:11:06.753Z,13.20
2022-11-03T09:13:36.413Z,13.20
2022-11-03T09:16:11.797Z,13.20
2022-11-03T09:18:40.063Z,13.20
2022-11-03T09:21:08.947Z,13.20
2022-11-03T09:23:43.626Z,13.20
2022-11-03T09:26:12.110Z,13.30
2022-11-03T09:28:48.556Z,13.30
2022-11-03T09:31:17.444Z,13.30
2022-11-03T09:33:52.720Z,13.30
2022-11-03T09:36:21.157Z,13.30
2022-11-03T09:38:55.767Z,13.30
2022-11-03T09:41:29.066Z,13.30
2022-11-03T09:44:21.102Z,13.30
2022-11-03T09:46:58.495Z,13.30
2022-11-03T09:49:28.245Z,13.30
2022-11-03T09:52:03.609Z,13.40
2022-11-03T09:54:32.836Z,13.40
2022-11-03T09:57:18.796Z,13.40
2022-11-03T09:59:58.091Z,13.40
2022-11-03T10:02:36.899Z,13.40
2022-11-03T10:05:10.982Z,13.40
2022-11-03T10:10:28.709Z,13.40
2022-11-03T10:13:06.998Z,13.50
2022-11-03T10:15:36.949Z,13.60
2022-11-03T10:18:11.748Z,13.60
2022-11-03T10:20:40.055Z,13.70
2022-11-03T10:23:16.895Z,13.70
2022-11-03T10:25:46.685Z,13.70
2022-11-03T10:28:24.750Z,13.80
2022-11-03T10:31:11.230Z,13.80
2022-11-03T10:33:48.722Z,13.80
2022-11-03T10:36:28.239Z,13.80
2022-11-03T10:39:03.699Z,13.90
2022-11-03T10:41:33.140Z,14.00
2022-11-03T10:44:14.675Z,14.10
2022-11-03T10:46:57.779Z,14.20
2022-11-03T10:49:36.543Z,14.20
2022-11-03T10:52:17.439Z,14.20
2022-11-03T10:54:52.647Z,14.30
2022-11-03T10:57:21.903Z,14.30
2022-11-03T11:00:04.663Z,14.30
2022-11-03T11:02:36.743Z,14.40
2022-11-03T11:05:21.795Z,14.40
2022-11-03T11:07:51.822Z,14.40
2022-11-03T11:10:29.708Z,14.40
2022-11-03T11:13:23.035Z,14.50
2022-11-03T11:15:59.667Z,14.50
2022-11-03T11:19:17.729Z,14.50
2022-11-03T11:22:15.758Z,14.60
2022-11-03T11:25:10.643Z,14.50
2022-11-03T11:28:13.378Z,14.60
2022-11-03T11:31:30.647Z,14.60
2022-11-03T11:34:35.575Z,14.60
2022-11-03T11:37:44.061Z,14.70
2022-11-03T11:40:15.315Z,14.70
2022-11-03T11:43:23.912Z,14.70
2022-11-03T11:46:34.267Z,14.70
2022-11-03T11:49:23.802Z,14.80
2022-11-03T11:51:52.994Z,14.80
2022-11-03T11:54:29.690Z,14.90
2022-11-03T11:56:57.919Z,14.90
2022-11-03T11:59:39.731Z,14.90
2022-11-03T12:02:20.671Z,14.90
2022-11-03T12:04:55.768Z,15.00
2022-11-03T12:07:34.467Z,15.00
2022-11-03T12:10:16.798Z,15.10
2022-11-03T12:12:45.863Z,15.10
2022-11-03T12:16:01.736Z,15.10
2022-11-03T12:18:38.892Z,15.20
2022-11-03T12:21:16.740Z,15.20
2022-11-03T12:23:46.571Z,15.30
2022-11-03T12:26:46.796Z,15.30
2022-11-03T12:29:14.952Z,15.30
2022-11-03T12:31:49.962Z,15.30
2022-11-03T12:34:18.658Z,15.40
2022-11-03T12:36:56.376Z,15.30
2022-11-03T12:39:24.963Z,15.30
2022-11-03T12:42:00.776Z,15.30
2022-11-03T12:44:29.311Z,15.20
2022-11-03T12:47:03.921Z,15.20
2022-11-03T12:49:32.234Z,15.20
2022-11-03T12:52:12.704Z,15.10
2022-11-03T12:54:42.448Z,15.10
2022-11-03T12:57:18.950Z,15.10
2022-11-03T12:59:54.217Z,15.10
2022-11-03T13:02:28.972Z,15.00
2022-11-03T13:04:57.487Z,15.00
2022-11-03T13:07:34.926Z,15.00
2022-11-03T13:10:04.987Z,14.90
2022-11-03T13:12:42.976Z,14.80
2022-11-03T13:15:13.586Z,14.70
2022-11-03T13:20:37.794Z,14.60
2022-11-03T13:23:13.710Z,14.60
2022-11-03T13:25:43.837Z,14.50
2022-11-03T13:28:19.954Z,14.40
2022-11-03T13:30:49.170Z,14.40
2022-11-03T13:33:23.930Z,14.30
2022-11-03T13:35:52.172Z,14.20
2022-11-03T13:38:27.877Z,14.10
2022-11-03T13:40:57.779Z,14.00
2022-11-03T13:43:35.813Z,13.90
2022-11-03T13:46:05.300Z,13.80
2022-11-03T13:51:35.885Z,13.60
2022-11-03T14:00:08.936Z,13.50
2022-11-03T14:05:32.177Z,13.50
2022-11-03T14:08:07.264Z,13.50
2022-11-03T14:10:35.819Z,13.50
2022-11-03T14:13:10.303Z,13.40
2022-11-03T14:15:40.378Z,13.40
2022-11-03T14:18:14.815Z,13.40
2022-11-03T14:20:43.370Z,13.50
2022-11-03T14:23:17.839Z,13.40
2022-11-03T14:25:52.064Z,13.50
2022-11-03T14:28:35.861Z,13.50
2022-11-03T14:31:06.738Z,13.50
2022-11-03T14:33:42.097Z,13.50
2022-11-03T14:36:10.329Z,13.50
2022-11-03T14:38:49.828Z,13.50
2022-11-03T14:41:35.656Z,13.50
2022-11-03T14:44:11.166Z,13.40
2022-11-03T14:46:42.034Z,13.40
2022-11-03T14:49:16.882Z,13.40
2022-11-03T14:51:45.322Z,13.40
2022-11-03T14:54:19.874Z,13.40
2022-11-03T14:56:48.292Z,13.40
2022-11-03T14:59:22.855Z,13.40
2022-11-03T15:02:00.278Z,13.40
2022-11-03T15:04:34.905Z,13.30
2022-11-03T15:07:03.055Z,13.30
2022-11-03T15:09:37.903Z,13.30
2022-11-03T15:12:06.377Z,13.30
2022-11-03T15:14:41.923Z,13.20
2022-11-03T15:17:11.658Z,13.20
2022-11-03T15:19:47.131Z,13.20
2022-11-03T15:22:15.870Z,13.20
2022-11-03T15:27:40.298Z,13.20
2022-11-03T15:30:16.897Z,13.20
2022-11-03T15:32:46.905Z,13.10
2022-11-03T15:35:21.963Z,13.10
2022-11-03T15:37:50.316Z,13.10
2022-11-03T15:40:25.121Z,13.10
2022-11-03T15:42:55.221Z,13.10
2022-11-03T15:45:33.006Z,13.00
2022-11-03T15:48:03.619Z,13.00
2022-11-03T15:50:38.962Z,13.00
2022-11-03T15:53:07.181Z,12.90
2022-11-03T15:55:42.136Z,12.80
2022-11-03T15:58:10.530Z,12.70
2022-11-03T16:00:52.004Z,12.70
2022-11-03T16:03:21.819Z,12.70
2022-11-03T16:05:57.096Z,12.60
2022-11-03T16:08:25.249Z,12.60
2022-11-03T16:11:00.652Z,12.50
2022-11-03T16:13:29.118Z,12.50
2022-11-03T16:16:04.005Z,12.50
2022-11-03T16:18:33.769Z,12.40
2022-11-03T16:21:08.939Z,12.30
2022-11-03T16:23:37.339Z,12.30
2022-11-03T16:26:13.151Z,12.20
2022-11-03T16:28:41.675Z,12.10
2022-11-03T16:31:15.978Z,12.10
2022-11-03T16:33:45.928Z,12.10
2022-11-03T16:36:21.040Z,12.10
2022-11-03T16:38:49.561Z,12.20
2022-11-03T16:41:23.963Z,12.20
2022-11-03T16:43:52.476Z,12.20
2022-11-03T16:46:27.163Z,12.20
2022-11-03T16:48:56.963Z,12.20
2022-11-03T16:51:32.050Z,12.20
2022-11-03T16:54:00.428Z,12.20
2022-11-03T16:56:35.111Z,12.20
2022-11-03T16:59:23.040Z,12.20
2022-11-03T17:01:58.268Z,12.20
2022-11-03T17:04:28.246Z,12.20
2022-11-03T17:07:03.043Z,12.20
2022-11-03T17:09:31.611Z,12.20
2022-11-03T17:12:06.060Z,12.20
2022-11-03T17:14:36.171Z,12.20
2022-11-03T17:17:11.195Z,12.10
2022-11-03T17:19:40.786Z,12.20
2022-11-03T17:22:15.077Z,12.20
2022-11-03T17:24:43.693Z,12.10
2022-11-03T17:27:23.022Z,12.10
2022-11-03T17:29:54.699Z,12.10
2022-11-03T17:32:33.082Z,12.10
2022-11-03T17:35:03.004Z,12.10
2022-11-03T17:37:39.029Z,12.10
2022-11-03T17:40:15.889Z,12.10
2022-11-03T17:42:51.106Z,12.10
2022-11-03T17:45:21.793Z,12.10
2022-11-03T17:47:58.224Z,12.20
2022-11-03T17:50:28.476Z,12.10
2022-11-03T17:53:04.414Z,12.20
2022-11-03T17:55:41.098Z,12.10
2022-11-03T17:58:11.575Z,12.10
2022-11-03T18:00:53.225Z,12.10
2022-11-03T18:03:21.431Z,12.10
2022-11-03T18:05:58.240Z,12.10
2022-11-03T18:08:26.893Z,12.10
2022-11-03T18:11:03.124Z,12.10
2022-11-03T18:13:34.461Z,12.10
2022-11-03T18:16:14.069Z,12.10
2022-11-03T18:18:44.052Z,12.10
2022-11-03T18:21:22.288Z,12.10
2022-11-03T18:23:50.995Z,12.10
2022-11-03T18:26:27.242Z,12.10
2022-11-03T18:28:55.704Z,12.10
2022-11-03T18:31:35.257Z,12.10
2022-11-03T18:34:06.455Z,12.10
2022-11-03T18:36:43.149Z,12.10
2022-11-03T18:39:15.674Z,12.10
2022-11-03T18:41:51.168Z,12.10
2022-11-03T18:44:22.105Z,12.10
2022-11-03T18:46:58.361Z,12.10
2022-11-03T18:49:27.497Z,12.00
2022-11-03T18:52:06.110Z,12.00
2022-11-03T18:54:36.347Z,12.00
2022-11-03T18:57:11.279Z,12.00
2022-11-03T18:59:48.535Z,12.00
2022-11-03T19:02:33.353Z,12.00
2022-11-03T19:05:01.846Z,12.00
2022-11-03T19:07:42.291Z,12.10
2022-11-03T19:10:14.871Z,12.00
2022-11-03T19:12:51.091Z,12.00
2022-11-03T19:15:22.787Z,12.00
2022-11-03T19:17:59.173Z,12.00
2022-11-03T19:20:27.637Z,12.00
2022-11-03T19:23:04.419Z,12.00
2022-11-03T19:25:33.150Z,12.00
2022-11-03T19:28:08.090Z,12.00
2022-11-03T19:30:36.294Z,12.00
2022-11-03T19:33:12.203Z,12.00
2022-11-03T19:35:42.842Z,12.00
2022-11-03T19:38:22.230Z,12.00
2022-11-03T19:41:16.287Z,12.00
2022-11-03T19:43:51.147Z,11.90
2022-11-03T19:46:21.019Z,11.90
2022-11-03T19:48:56.163Z,11.90
2022-11-03T19:51:31.318Z,11.90
2022-11-03T19:54:01.048Z,11.90
2022-11-03T19:56:36.233Z,11.90
2022-11-03T19:59:17.673Z,11.90
2022-11-03T20:01:59.286Z,11.80
2022-11-03T20:04:27.693Z,11.80
2022-11-03T20:07:03.323Z,11.80
2022-11-03T20:09:33.460Z,11.80
2022-11-03T20:12:13.370Z,11.80
2022-11-03T20:14:41.498Z,11.70
2022-11-03T20:17:20.187Z,11.70
2022-11-03T20:19:48.886Z,11.60
2022-11-03T20:22:29.201Z,11.60
2022-11-03T20:25:03.354Z,11.50
2022-11-03T20:27:39.266Z,11.40
2022-11-03T20:30:11.264Z,11.30
2022-11-03T20:32:46.383Z,11.30
2022-11-03T20:35:18.749Z,11.20
2022-11-03T20:37:58.204Z,11.20
2022-11-03T20:40:31.728Z,11.20
2022-11-03T20:43:08.202Z,11.20
2022-11-03T20:45:36.617Z,11.20
2022-11-03T20:48:12.274Z,11.20
2022-11-03T20:50:42.029Z,11.10
2022-11-03T20:53:22.402Z,11.10
2022-11-03T20:55:53.070Z,11.10
2022-11-03T20:58:28.452Z,11.10
2022-11-03T21:01:16.328Z,11.10
2022-11-03T21:03:59.133Z,11.10
2022-11-03T21:06:29.037Z,11.00
2022-11-03T21:09:04.373Z,11.00
2022-11-03T21:11:40.542Z,11.00
2022-11-03T21:14:22.402Z,11.00
2022-11-03T21:17:14.431Z,11.00
2022-11-03T21:19:56.734Z,10.90
2022-11-03T21:25:23.413Z,10.80
2022-11-03T21:28:01.422Z,10.80
2022-11-03T21:30:29.828Z,10.80
2022-11-03T21:33:04.434Z,10.70
2022-11-03T21:35:32.960Z,10.70
2022-11-03T21:38:08.689Z,10.70
2022-11-03T21:40:37.458Z,10.70
2022-11-03T21:43:31.289Z,10.70
2022-11-03T21:46:10.125Z,10.70
2022-11-03T21:49:03.451Z,10.70
2022-11-03T21:51:31.875Z,10.70
2022-11-03T21:54:06.255Z,10.70
2022-11-03T21:56:34.750Z,10.60
2022-11-03T21:59:11.440Z,10.60
2022-11-03T22:01:46.578Z,10.60
2022-11-03T22:04:22.632Z,10.60
2022-11-03T22:06:51.409Z,10.60
2022-11-03T22:09:26.317Z,10.60
2022-11-03T22:11:55.352Z,10.40
2022-11-03T22:14:33.516Z,10.40
2022-11-03T22:19:53.321Z,10.20
2022-11-03T22:22:39.187Z,10.30
2022-11-03T22:25:32.280Z,10.30
2022-11-03T22:28:00.649Z,10.30
2022-11-03T22:30:59.599Z,10.30
2022-11-03T22:33:28.413Z,10.30
2022-11-03T22:36:21.924Z,10.30
2022-11-03T22:39:08.014Z,10.40
2022-11-03T22:42:05.090Z,10.40
2022-11-03T22:44:52.164Z,10.30
2022-11-03T22:47:28.314Z,10.40
2022-11-03T22:49:56.730Z,10.40
2022-11-03T22:52:31.320Z,10.30
2022-11-03T22:54:58.507Z,10.30
2022-11-03T22:57:33.347Z,10.30
2022-11-03T23:00:07.762Z,10.20
2022-11-03T23:02:50.349Z,10.20
2022-11-03T23:05:18.810Z,10.20
2022-11-03T23:07:53.402Z,10.20
2022-11-03T23:10:28.350Z,10.20
2022-11-03T23:13:03.384Z,10.20
2022-11-03T23:15:34.331Z,10.20
2022-11-03T23:18:29.511Z,10.20
2022-11-03T23:21:09.777Z,10.20
2022-11-03T23:24:04.368Z,10.10
2022-11-03T23:26:32.634Z,10.10
2022-11-03T23:29:07.542Z,10.10
2022-11-03T23:31:36.726Z,10.00
2022-11-03T23:34:13.358Z,10.00
2022-11-03T23:36:42.453Z,10.00
2022-11-03T23:39:21.409Z,9.90
2022-11-03T23:42:04.841Z,9.90
2022-11-03T23:44:59.413Z,10.00
2022-11-03T23:47:51.365Z,9.90
2022-11-03T23:50:21.201Z,9.90
2022-11-03T23:52:57.055Z,9.90
2022-11-03T23:55:25.280Z,9.90
2022-11-03T23:58:17.429Z,9.80
